createdAt,value
2017-11-09T00:01:09.978Z,38.70
2017-11-09T00:03:51.459Z,38.70
2017-11-09T00:06:18.738Z,41.20
2017-11-09T00:08:45.326Z,38.60
2017-11-09T00:11:11.949Z,39.10
2017-11-09T00:13:38.527Z,39.97
2017-11-09T00:16:05.137Z,37.70
2017-11-09T00:18:38.353Z,39.27
2017-11-09T00:21:04.959Z,39.30
2017-11-09T00:23:31.550Z,39.00
2017-11-09T00:25:58.147Z,38.03
2017-11-09T00:28:24.754Z,40.20
2017-11-09T00:30:51.357Z,39.63
2017-11-09T00:33:17.956Z,39.33
2017-11-09T00:35:44.549Z,39.90
2017-11-09T00:38:11.154Z,38.97
2017-11-09T00:40:37.790Z,38.70
2017-11-09T00:43:04.383Z,39.20
2017-11-09T00:45:30.979Z,38.27
2017-11-09T00:47:57.567Z,36.60
2017-11-09T00:50:24.169Z,39.00
2017-11-09T00:52:50.761Z,37.70
2017-11-09T00:55:17.358Z,38.43
2017-11-09T00:57:43.988Z,38.60
2017-11-09T01:00:10.587Z,38.23
2017-11-09T01:02:37.179Z,38.40
2017-11-09T01:05:03.767Z,38.10
2017-11-09T01:07:30.367Z,38.47
2017-11-09T01:09:56.963Z,37.03
2017-11-09T01:12:23.563Z,37.50
2017-11-09T01:14:50.178Z,37.77
2017-11-09T01:17:16.784Z,38.57
2017-11-09T01:19:43.374Z,39.07
2017-11-09T01:22:09.970Z,38.57
2017-11-09T01:24:36.570Z,38.10
2017-11-09T01:27:03.155Z,37.70
2017-11-09T01:29:29.756Z,38.30
2017-11-09T01:31:56.379Z,39.47
2017-11-09T01:34:22.955Z,40.03
2017-11-09T01:36:49.553Z,38.70
2017-11-09T01:39:16.142Z,38.67
2017-11-09T01:41:42.734Z,41.17
2017-11-09T01:44:09.323Z,39.97
2017-11-09T01:46:35.927Z,38.80
2017-11-09T01:49:02.541Z,40.00
2017-11-09T01:51:29.146Z,38.43
2017-11-09T01:53:55.730Z,41.00
2017-11-09T01:56:22.334Z,40.33
2017-11-09T01:58:48.927Z,40.30
2017-11-09T02:01:15.522Z,38.50
2017-11-09T02:03:42.126Z,41.03
2017-11-09T02:06:08.722Z,39.50
2017-11-09T02:08:35.309Z,39.53
2017-11-09T02:11:01.899Z,41.40
2017-11-09T02:13:28.499Z,41.73
2017-11-09T02:15:55.082Z,41.40
2017-11-09T02:18:21.682Z,41.10
2017-11-09T02:20:48.276Z,40.30
2017-11-09T02:23:14.850Z,41.43
2017-11-09T02:25:41.565Z,42.37
2017-11-09T02:28:08.158Z,39.40
2017-11-09T02:30:34.746Z,40.07
2017-11-09T02:33:01.442Z,40.20
2017-11-09T02:35:28.034Z,39.30
2017-11-09T02:37:54.617Z,40.00
2017-11-09T02:40:21.246Z,40.60
2017-11-09T02:42:47.839Z,39.07
2017-11-09T02:45:14.459Z,39.77
2017-11-09T02:47:41.055Z,40.37
2017-11-09T02:50:07.638Z,41.60
2017-11-09T02:52:34.235Z,41.97
2017-11-09T02:55:00.842Z,39.90
2017-11-09T02:57:27.422Z,40.40
2017-11-09T02:59:54.005Z,42.57
2017-11-09T03:02:20.631Z,40.60
2017-11-09T03:04:47.218Z,41.23
2017-11-09T03:07:13.807Z,40.20
2017-11-09T03:09:40.398Z,40.07
2017-11-09T03:12:06.986Z,40.30
2017-11-09T03:14:33.573Z,43.00
2017-11-09T03:17:00.165Z,40.27
2017-11-09T03:19:26.763Z,39.17
2017-11-09T03:21:53.345Z,40.20
2017-11-09T03:24:19.956Z,40.23
2017-11-09T03:26:46.534Z,40.00
2017-11-09T03:29:13.128Z,40.10
2017-11-09T03:31:39.722Z,40.50
2017-11-09T03:34:06.317Z,38.60
2017-11-09T03:36:32.919Z,41.60
2017-11-09T03:38:59.519Z,40.13
2017-11-09T03:41:26.110Z,40.43
2017-11-09T03:43:52.696Z,39.30
2017-11-09T03:46:19.350Z,43.30
2017-11-09T03:48:45.938Z,41.80
2017-11-09T03:51:12.535Z,39.87
2017-11-09T03:53:39.127Z,40.73
2017-11-09T03:56:05.707Z,41.43
2017-11-09T03:58:32.305Z,42.13
2017-11-09T04:00:58.922Z,40.73
2017-11-09T04:03:25.502Z,41.30
2017-11-09T04:05:52.094Z,41.43
2017-11-09T04:08:18.726Z,42.87
2017-11-09T04:10:45.309Z,42.67
2017-11-09T04:13:11.897Z,42.23
2017-11-09T04:15:38.515Z,41.10
2017-11-09T04:18:05.122Z,40.87
2017-11-09T04:20:31.710Z,41.70
2017-11-09T04:22:58.314Z,42.27
2017-11-09T04:25:24.902Z,42.17
2017-11-09T04:27:51.502Z,40.50
2017-11-09T04:30:21.144Z,42.07
2017-11-09T04:32:47.714Z,43.47
2017-11-09T04:35:14.343Z,41.57
2017-11-09T04:37:40.940Z,43.90
2017-11-09T04:40:07.518Z,43.23
2017-11-09T04:42:34.105Z,43.87
2017-11-09T04:45:00.797Z,41.80
2017-11-09T04:47:27.386Z,41.70
2017-11-09T04:49:53.971Z,40.40
2017-11-09T04:52:20.573Z,43.83
2017-11-09T04:54:47.158Z,42.60
2017-11-09T04:57:13.742Z,42.13
2017-11-09T04:59:40.341Z,42.10
2017-11-09T05:02:06.930Z,42.40
2017-11-09T05:04:33.511Z,44.90
2017-11-09T05:07:00.224Z,42.77
2017-11-09T05:09:26.815Z,42.03
2017-11-09T05:11:53.422Z,43.13
2017-11-09T05:14:20.020Z,44.43
2017-11-09T05:16:46.613Z,43.50
2017-11-09T05:19:13.194Z,44.07
2017-11-09T05:21:39.791Z,42.57
2017-11-09T05:24:06.389Z,43.10
2017-11-09T05:26:32.977Z,44.00
2017-11-09T05:28:59.580Z,45.53
2017-11-09T05:31:26.162Z,42.80
2017-11-09T05:33:52.755Z,42.70
2017-11-09T05:36:19.351Z,42.10
2017-11-09T05:38:45.934Z,41.40
2017-11-09T05:41:12.535Z,41.60
2017-11-09T05:43:39.229Z,42.30
2017-11-09T05:46:05.822Z,42.60
2017-11-09T05:48:32.415Z,43.70
2017-11-09T05:50:59.015Z,42.43
2017-11-09T05:53:25.599Z,41.27
2017-11-09T05:55:52.181Z,42.67
2017-11-09T05:58:18.802Z,43.10
2017-11-09T06:00:45.382Z,42.40
2017-11-09T06:03:12.012Z,42.60
2017-11-09T06:05:38.648Z,41.20
2017-11-09T06:08:05.214Z,41.77
2017-11-09T06:10:31.806Z,44.10
2017-11-09T06:12:58.415Z,43.27
2017-11-09T06:15:24.998Z,42.20
2017-11-09T06:17:51.592Z,43.03
2017-11-09T06:20:18.211Z,42.83
2017-11-09T06:22:44.821Z,44.23
2017-11-09T06:25:11.397Z,42.00
2017-11-09T06:27:38.099Z,42.10
2017-11-09T06:30:04.686Z,42.37
2017-11-09T06:32:31.268Z,41.80
2017-11-09T06:34:57.862Z,43.63
2017-11-09T06:37:24.470Z,43.50
2017-11-09T06:39:51.050Z,42.83
2017-11-09T06:42:17.669Z,43.17
2017-11-09T06:44:44.253Z,43.10
2017-11-09T06:47:10.847Z,44.20
2017-11-09T06:49:37.659Z,44.97
2017-11-09T06:52:04.262Z,43.57
2017-11-09T06:54:30.862Z,43.67
2017-11-09T06:56:57.474Z,42.80
2017-11-09T06:59:24.058Z,42.87
2017-11-09T07:01:50.646Z,42.80
2017-11-09T07:04:17.350Z,43.40
2017-11-09T07:06:43.934Z,44.37
2017-11-09T07:09:10.547Z,42.80
2017-11-09T07:11:37.138Z,44.90
2017-11-09T07:14:03.730Z,44.40
2017-11-09T07:16:30.314Z,44.07
2017-11-09T07:18:56.912Z,43.20
2017-11-09T07:21:23.512Z,43.33
2017-11-09T07:23:50.080Z,43.30
2017-11-09T07:26:16.691Z,42.17
2017-11-09T07:28:43.273Z,43.60
2017-11-09T07:31:09.859Z,41.80
2017-11-09T07:33:36.455Z,40.93
2017-11-09T07:36:03.040Z,42.03
2017-11-09T07:38:29.624Z,42.77
2017-11-09T07:40:56.231Z,42.90
2017-11-09T07:43:22.825Z,42.20
2017-11-09T07:45:49.413Z,41.60
2017-11-09T07:48:16.031Z,41.90
2017-11-09T07:50:42.621Z,43.40
2017-11-09T07:53:09.210Z,42.67
2017-11-09T07:55:35.802Z,41.10
2017-11-09T07:58:02.390Z,41.30
2017-11-09T08:00:28.985Z,40.60
2017-11-09T08:02:55.575Z,43.00
2017-11-09T08:05:22.188Z,43.30
2017-11-09T08:07:48.763Z,42.23
2017-11-09T08:10:15.383Z,41.03
2017-11-09T08:12:41.969Z,40.97
2017-11-09T08:15:08.567Z,41.97
2017-11-09T08:17:35.166Z,42.53
2017-11-09T08:20:01.745Z,43.50
2017-11-09T08:22:28.335Z,41.83
2017-11-09T08:24:55.197Z,42.13
2017-11-09T08:27:22.883Z,41.30
2017-11-09T08:29:50.497Z,42.60
2017-11-09T08:32:18.177Z,42.10
2017-11-09T08:34:44.760Z,42.20
2017-11-09T08:37:11.354Z,41.60
2017-11-09T08:39:38.001Z,43.33
2017-11-09T08:42:04.587Z,42.30
2017-11-09T08:44:31.184Z,40.57
2017-11-09T08:46:57.767Z,40.53
2017-11-09T08:49:24.356Z,41.57
2017-11-09T08:51:50.934Z,41.07
2017-11-09T08:54:17.534Z,41.10
2017-11-09T08:56:44.138Z,42.73
2017-11-09T08:59:10.730Z,42.10
2017-11-09T09:01:37.328Z,43.23
2017-11-09T09:04:03.921Z,41.97
2017-11-09T09:06:30.510Z,42.60
2017-11-09T09:08:57.948Z,42.20
2017-11-09T09:11:24.525Z,41.60
2017-11-09T09:13:51.132Z,42.73
2017-11-09T09:16:17.722Z,42.70
2017-11-09T09:18:44.297Z,40.13
2017-11-09T09:21:13.557Z,40.63
2017-11-09T09:23:50.863Z,40.33
2017-11-09T09:26:18.327Z,40.60
2017-11-09T09:28:45.510Z,41.13
2017-11-09T09:31:14.907Z,40.30
2017-11-09T09:33:56.522Z,41.60
2017-11-09T09:39:46.274Z,41.17
2017-11-09T09:42:12.882Z,40.20
2017-11-09T09:44:39.467Z,40.20
2017-11-09T09:47:06.050Z,39.30
2017-11-09T09:49:32.660Z,39.80
2017-11-09T09:51:59.239Z,38.90
2017-11-09T09:54:25.831Z,40.50
2017-11-09T09:56:52.446Z,40.13
2017-11-09T09:59:19.035Z,38.70
2017-11-09T10:01:45.619Z,37.10
2017-11-09T10:04:12.224Z,37.90
2017-11-09T10:06:38.818Z,38.27
2017-11-09T10:09:05.402Z,37.50
2017-11-09T10:11:32.010Z,37.73
2017-11-09T10:13:58.586Z,38.57
2017-11-09T10:16:25.175Z,38.70
2017-11-09T10:18:51.761Z,38.47
2017-11-09T10:21:18.346Z,40.73
2017-11-09T10:23:44.937Z,39.27
2017-11-09T10:26:11.534Z,40.03
2017-11-09T10:28:38.131Z,41.50
2017-11-09T10:31:04.735Z,40.80
2017-11-09T10:33:31.435Z,41.13
2017-11-09T10:35:58.027Z,40.10
2017-11-09T10:38:24.617Z,41.23
2017-11-09T10:40:51.215Z,40.57
2017-11-09T10:43:17.799Z,39.30
2017-11-09T10:45:44.378Z,39.00
2017-11-09T10:48:10.983Z,39.17
2017-11-09T10:50:37.839Z,38.30
2017-11-09T10:53:04.427Z,37.10
2017-11-09T10:55:31.032Z,37.13
2017-11-09T10:57:57.644Z,37.53
2017-11-09T11:00:30.080Z,36.13
2017-11-09T11:02:56.646Z,38.43
2017-11-09T11:05:23.241Z,38.40
2017-11-09T11:07:49.832Z,37.47
2017-11-09T11:10:16.410Z,38.47
2017-11-09T11:12:42.997Z,37.30
2017-11-09T11:15:09.718Z,37.70
2017-11-09T11:17:37.250Z,37.10
2017-11-09T11:20:03.830Z,38.40
2017-11-09T11:22:30.445Z,38.23
2017-11-09T11:24:57.030Z,40.10
2017-11-09T11:27:23.613Z,38.70
2017-11-09T11:29:50.421Z,39.50
2017-11-09T11:32:17.030Z,37.77
2017-11-09T11:34:43.636Z,40.57
2017-11-09T11:37:13.950Z,38.10
2017-11-09T11:39:40.536Z,38.67
2017-11-09T11:42:07.118Z,39.10
2017-11-09T11:44:33.718Z,37.33
2017-11-09T11:47:00.299Z,37.40
2017-11-09T11:49:26.913Z,37.10
2017-11-09T11:51:53.578Z,32.87
2017-11-09T11:54:20.174Z,33.20
2017-11-09T11:56:46.758Z,32.73
2017-11-09T11:59:13.458Z,33.83
2017-11-09T12:01:40.074Z,32.40
2017-11-09T12:04:06.666Z,31.70
2017-11-09T12:06:33.352Z,32.00
2017-11-09T12:08:59.934Z,30.67
2017-11-09T12:11:26.515Z,31.63
2017-11-09T12:13:53.110Z,30.40
2017-11-09T12:16:19.698Z,29.17
2017-11-09T12:18:46.282Z,30.93
2017-11-09T12:21:12.907Z,29.50
2017-11-09T12:23:39.502Z,27.70
2017-11-09T12:26:06.083Z,28.93
2017-11-09T12:28:32.797Z,28.20
2017-11-09T12:31:02.151Z,28.30
2017-11-09T12:33:28.862Z,28.33
2017-11-09T12:35:55.542Z,28.17
2017-11-09T12:38:22.127Z,28.20
2017-11-09T12:40:48.810Z,28.03
2017-11-09T12:43:15.390Z,26.60
2017-11-09T12:45:41.998Z,27.07
2017-11-09T12:48:08.584Z,28.07
2017-11-09T12:50:35.195Z,27.57
2017-11-09T12:53:01.801Z,27.90
2017-11-09T12:55:28.369Z,27.77
2017-11-09T12:57:54.970Z,26.80
2017-11-09T13:00:21.563Z,26.80
2017-11-09T13:02:48.152Z,26.53
2017-11-09T13:05:14.784Z,29.17
2017-11-09T13:07:41.366Z,27.67
2017-11-09T13:10:08.031Z,26.67
2017-11-09T13:12:34.615Z,27.43
2017-11-09T13:15:01.191Z,26.00
2017-11-09T13:17:27.801Z,29.73
2017-11-09T13:19:54.510Z,27.07
2017-11-09T13:22:21.106Z,26.30
2017-11-09T13:24:47.806Z,26.40
2017-11-09T13:27:14.406Z,27.27
2017-11-09T13:29:40.990Z,27.00
2017-11-09T13:32:07.582Z,27.13
2017-11-09T13:34:36.926Z,27.20
2017-11-09T13:37:03.502Z,27.47
2017-11-09T13:39:30.087Z,28.03
2017-11-09T13:41:56.707Z,26.73
2017-11-09T13:44:23.297Z,26.50
2017-11-09T13:46:49.887Z,26.40
2017-11-09T13:49:16.639Z,26.30
2017-11-09T13:51:43.224Z,25.60
2017-11-09T13:54:09.807Z,24.80
2017-11-09T13:56:36.511Z,25.50
2017-11-09T13:59:03.098Z,25.27
2017-11-09T14:01:29.683Z,26.73
2017-11-09T14:03:56.285Z,25.17
2017-11-09T14:06:22.879Z,26.37
2017-11-09T14:08:49.462Z,26.00
2017-11-09T14:11:16.078Z,25.57
2017-11-09T14:13:42.660Z,25.20
2017-11-09T14:16:09.255Z,26.70
2017-11-09T14:18:35.870Z,25.87
2017-11-09T14:21:02.461Z,25.13
2017-11-09T14:23:29.041Z,25.80
2017-11-09T14:25:55.744Z,24.13
2017-11-09T14:28:22.430Z,26.13
2017-11-09T14:30:49.011Z,27.70
2017-11-09T14:33:15.617Z,25.80
2017-11-09T14:35:42.226Z,25.73
2017-11-09T14:38:08.816Z,26.40
2017-11-09T14:40:37.234Z,25.90
2017-11-09T14:43:03.844Z,27.03
2017-11-09T14:45:30.405Z,26.70
2017-11-09T14:47:56.998Z,26.30
2017-11-09T14:50:23.580Z,26.63
2017-11-09T14:52:50.166Z,27.57
2017-11-09T14:55:16.871Z,26.87
2017-11-09T14:57:43.470Z,27.90
2017-11-09T15:00:10.046Z,27.53
2017-11-09T15:02:36.662Z,28.53
2017-11-09T15:05:03.246Z,28.07
2017-11-09T15:07:29.826Z,27.17
2017-11-09T15:09:56.433Z,27.43
2017-11-09T15:12:23.010Z,26.60
2017-11-09T15:14:49.599Z,27.80
2017-11-09T15:17:16.213Z,28.87
2017-11-09T15:19:42.795Z,27.37
2017-11-09T15:22:09.374Z,27.00
2017-11-09T15:24:36.006Z,28.33
2017-11-09T15:27:02.586Z,27.50
2017-11-09T15:29:29.170Z,26.30
2017-11-09T15:31:55.767Z,27.80
2017-11-09T15:34:22.382Z,27.73
2017-11-09T15:36:48.969Z,27.90
2017-11-09T15:39:15.567Z,25.73
2017-11-09T15:41:42.141Z,26.40
2017-11-09T15:44:08.726Z,25.20
2017-11-09T15:46:35.321Z,26.97
2017-11-09T15:49:01.911Z,26.80
2017-11-09T15:51:28.498Z,25.80
2017-11-09T15:53:55.089Z,28.17
2017-11-09T15:56:21.682Z,25.50
2017-11-09T15:58:48.259Z,27.30
2017-11-09T16:01:14.846Z,25.10
2017-11-09T16:03:41.441Z,25.00
2017-11-09T16:06:08.018Z,26.40
2017-11-09T16:08:34.606Z,25.40
2017-11-09T16:11:01.190Z,26.07
2017-11-09T16:13:27.778Z,26.83
2017-11-09T16:15:54.396Z,24.47
2017-11-09T16:18:20.974Z,24.93
2017-11-09T16:20:47.558Z,25.77
2017-11-09T16:23:14.249Z,23.90
2017-11-09T16:25:40.836Z,24.90
2017-11-09T16:28:07.415Z,25.17
2017-11-09T16:30:34.677Z,25.87
2017-11-09T16:33:01.255Z,25.10
2017-11-09T16:35:27.834Z,25.43
2017-11-09T16:37:54.535Z,24.40
2017-11-09T16:40:21.122Z,24.40
2017-11-09T16:42:47.709Z,25.60
2017-11-09T16:45:14.687Z,23.83
2017-11-09T16:47:41.246Z,22.93
2017-11-09T16:50:07.838Z,23.47
2017-11-09T16:52:40.044Z,23.37
2017-11-09T16:55:06.638Z,25.10
2017-11-09T16:57:36.159Z,26.93
2017-11-09T17:00:02.771Z,26.03
2017-11-09T17:02:29.349Z,25.40
2017-11-09T17:04:55.930Z,26.37
2017-11-09T17:07:24.485Z,28.10
2017-11-09T17:09:51.070Z,26.70
2017-11-09T17:12:17.658Z,25.63
2017-11-09T17:14:44.272Z,25.50
2017-11-09T17:17:10.843Z,26.00
2017-11-09T17:19:37.422Z,24.73
2017-11-09T17:22:04.113Z,28.38
2017-11-09T17:24:30.694Z,24.10
2017-11-09T17:26:57.287Z,25.90
2017-11-09T17:29:23.978Z,27.43
2017-11-09T17:31:50.641Z,24.63
2017-11-09T17:34:17.228Z,23.63
2017-11-09T17:36:43.832Z,23.33
2017-11-09T17:39:10.418Z,24.77
2017-11-09T17:41:36.990Z,24.60
2017-11-09T17:44:03.586Z,24.90
2017-11-09T17:46:30.177Z,25.53
2017-11-09T17:48:56.774Z,25.93
2017-11-09T17:51:23.372Z,24.60
2017-11-09T17:53:49.938Z,24.63
2017-11-09T17:56:16.539Z,24.80
2017-11-09T17:58:43.153Z,24.40
2017-11-09T18:01:11.649Z,25.13
2017-11-09T18:03:38.249Z,28.73
2017-11-09T18:06:04.929Z,26.43
2017-11-09T18:08:31.548Z,24.50
2017-11-09T18:10:58.150Z,24.40
2017-11-09T18:13:25.066Z,24.90
2017-11-09T18:15:51.646Z,24.33
2017-11-09T18:18:18.414Z,22.87
2017-11-09T18:20:45.090Z,22.70
2017-11-09T18:23:13.570Z,23.50
2017-11-09T18:25:40.232Z,22.80
2017-11-09T18:28:07.033Z,21.87
2017-11-09T18:30:33.707Z,22.17
2017-11-09T18:33:00.287Z,22.60
2017-11-09T18:35:26.993Z,22.67
2017-11-09T18:37:53.578Z,22.57
2017-11-09T18:40:20.257Z,21.80
2017-11-09T18:42:46.929Z,22.47
2017-11-09T18:45:13.555Z,21.40
2017-11-09T18:47:40.185Z,22.47
2017-11-09T18:50:06.778Z,21.93
2017-11-09T18:52:33.416Z,21.33
2017-11-09T18:55:00.084Z,23.00
2017-11-09T18:57:26.698Z,22.17
2017-11-09T18:59:58.364Z,22.80
2017-11-09T19:02:24.966Z,22.33
2017-11-09T19:04:52.429Z,21.10
2017-11-09T19:07:19.014Z,20.90
2017-11-09T19:09:45.601Z,22.30
2017-11-09T19:12:12.236Z,22.40
2017-11-09T19:14:38.907Z,25.47
2017-11-09T19:17:05.498Z,26.03
2017-11-09T19:19:32.118Z,25.40
2017-11-09T19:21:58.690Z,23.03
2017-11-09T19:24:25.316Z,22.60
2017-11-09T19:26:52.002Z,23.60
2017-11-09T19:29:18.582Z,22.33
2017-11-09T19:31:45.166Z,21.67
2017-11-09T19:34:11.930Z,22.10
2017-11-09T19:36:38.641Z,22.07
2017-11-09T19:39:05.238Z,21.13
2017-11-09T19:41:31.868Z,20.50
2017-11-09T19:43:58.445Z,22.10
2017-11-09T19:46:25.033Z,23.10
2017-11-09T19:48:51.738Z,22.27
2017-11-09T19:51:18.347Z,24.63
2017-11-09T19:53:45.086Z,21.23
2017-11-09T19:56:11.797Z,21.60
2017-11-09T19:58:38.423Z,22.80
2017-11-09T20:01:05.014Z,23.20
2017-11-09T20:03:31.646Z,22.17
2017-11-09T20:05:58.240Z,22.80
2017-11-09T20:08:24.826Z,24.10
2017-11-09T20:10:51.414Z,24.63
2017-11-09T20:13:18.014Z,23.97
2017-11-09T20:15:44.595Z,23.93
2017-11-09T20:18:11.207Z,24.93
2017-11-09T20:20:37.795Z,26.00
2017-11-09T20:23:04.376Z,26.33
2017-11-09T20:25:31.038Z,25.80
2017-11-09T20:28:01.462Z,26.33
2017-11-09T20:30:28.958Z,25.83
2017-11-09T20:32:55.621Z,26.90
2017-11-09T20:35:22.221Z,27.03
2017-11-09T20:37:48.798Z,26.10
2017-11-09T20:40:15.395Z,26.60
2017-11-09T20:42:42.025Z,25.67
2017-11-09T20:45:08.758Z,24.60
2017-11-09T20:47:35.382Z,23.30
2017-11-09T20:50:01.954Z,23.27
2017-11-09T20:52:28.543Z,23.17
2017-11-09T20:54:55.146Z,21.50
2017-11-09T20:57:21.731Z,22.77
2017-11-09T20:59:48.305Z,22.23
2017-11-09T21:02:18.727Z,22.20
2017-11-09T21:04:45.326Z,23.83
2017-11-09T21:07:11.955Z,24.57
2017-11-09T21:09:38.533Z,25.37
2017-11-09T21:12:05.117Z,26.13
2017-11-09T21:14:31.697Z,27.37
2017-11-09T21:16:58.296Z,26.37
2017-11-09T21:19:24.888Z,25.67
2017-11-09T21:21:51.465Z,26.00
2017-11-09T21:24:18.086Z,25.90
2017-11-09T21:26:44.670Z,25.93
2017-11-09T21:29:11.242Z,27.07
2017-11-09T21:31:37.954Z,25.77
2017-11-09T21:34:04.540Z,25.40
2017-11-09T21:36:31.117Z,25.50
2017-11-09T21:38:57.814Z,25.93
2017-11-09T21:41:24.398Z,27.30
2017-11-09T21:43:51.022Z,27.20
2017-11-09T21:46:17.617Z,25.73
2017-11-09T21:48:44.201Z,24.03
2017-11-09T21:51:10.792Z,25.43
2017-11-09T21:53:37.486Z,24.20
2017-11-09T21:56:04.074Z,24.60
2017-11-09T21:58:30.662Z,24.73
2017-11-09T22:00:57.353Z,22.87
2017-11-09T22:03:23.943Z,23.13
2017-11-09T22:05:50.526Z,23.50
2017-11-09T22:08:17.121Z,26.47
2017-11-09T22:10:43.714Z,24.53
2017-11-09T22:13:10.293Z,26.20
2017-11-09T22:15:36.899Z,26.37
2017-11-09T22:18:03.481Z,25.83
2017-11-09T22:20:30.069Z,25.60
2017-11-09T22:22:56.664Z,24.90
2017-11-09T22:25:23.259Z,24.80
2017-11-09T22:27:49.842Z,22.50
2017-11-09T22:30:16.434Z,22.90
2017-11-09T22:32:43.020Z,22.27
2017-11-09T22:35:09.612Z,22.07
2017-11-09T22:37:36.208Z,22.70
2017-11-09T22:40:02.796Z,22.97
2017-11-09T22:42:29.378Z,22.00
2017-11-09T22:44:55.970Z,20.93
2017-11-09T22:47:22.557Z,21.53
2017-11-09T22:49:49.135Z,21.37
2017-11-09T22:52:15.756Z,21.57
2017-11-09T22:54:42.345Z,20.77
2017-11-09T22:57:08.922Z,21.07
2017-11-09T22:59:35.519Z,20.30
2017-11-09T23:02:02.106Z,20.70
2017-11-09T23:04:28.694Z,21.27
2017-11-09T23:06:55.302Z,21.43
2017-11-09T23:09:21.882Z,21.00
2017-11-09T23:11:48.470Z,21.23
2017-11-09T23:14:15.074Z,21.13
2017-11-09T23:16:41.659Z,20.40
2017-11-09T23:19:08.243Z,20.70
2017-11-09T23:21:34.939Z,20.37
2017-11-09T23:24:01.520Z,21.17
2017-11-09T23:26:28.209Z,20.30
2017-11-09T23:28:54.805Z,21.10
2017-11-09T23:31:21.398Z,21.47
2017-11-09T23:33:47.994Z,21.63
2017-11-09T23:36:14.693Z,20.27
2017-11-09T23:38:41.277Z,21.47
2017-11-09T23:41:07.861Z,20.70
2017-11-09T23:43:34.502Z,20.50
2017-11-09T23:46:04.764Z,20.70
2017-11-09T23:48:31.358Z,21.73
2017-11-09T23:50:57.939Z,21.10
2017-11-09T23:53:24.522Z,20.40
2017-11-09T23:55:51.115Z,21.10
2017-11-09T23:58:17.705Z,20.53
